createdAt,value
2023-09-11T00:00:45.349Z,0.00
2023-09-11T00:01:45.292Z,0.00
2023-09-11T00:02:45.282Z,0.00
2023-09-11T00:03:45.283Z,0.00
2023-09-11T00:04:45.210Z,0.00
2023-09-11T00:05:54.817Z,0.00
2023-09-11T00:06:46.231Z,0.00
2023-09-11T00:07:45.195Z,0.00
2023-09-11T00:08:45.214Z,0.00
2023-09-11T00:09:45.172Z,0.00
2023-09-11T00:10:45.162Z,0.00
2023-09-11T00:11:45.339Z,0.00
2023-09-11T00:12:45.140Z,0.00
2023-09-11T00:13:45.119Z,0.00
2023-09-11T00:14:45.127Z,0.00
2023-09-11T00:15:45.096Z,0.00
2023-09-11T00:16:45.138Z,0.00
2023-09-11T00:17:45.124Z,0.00
2023-09-11T00:18:45.451Z,0.00
2023-09-11T00:19:45.061Z,0.00
2023-09-11T00:20:45.106Z,0.00
2023-09-11T00:21:45.024Z,0.00
2023-09-11T00:22:45.012Z,0.00
2023-09-11T00:23:45.043Z,0.00
2023-09-11T00:24:45.104Z,0.00
2023-09-11T00:25:44.976Z,0.00
2023-09-11T00:26:45.051Z,0.00
2023-09-11T00:27:44.965Z,0.00
2023-09-11T00:28:44.957Z,0.00
2023-09-11T00:29:44.973Z,0.00
2023-09-11T00:30:45.039Z,0.00
2023-09-11T00:31:44.930Z,0.00
2023-09-11T00:32:44.983Z,0.00
2023-09-11T00:33:44.966Z,0.00
2023-09-11T00:34:44.877Z,0.00
2023-09-11T00:35:45.003Z,0.00
2023-09-11T00:36:44.935Z,0.00
2023-09-11T00:37:44.900Z,0.00
2023-09-11T00:38:44.878Z,0.00
2023-09-11T00:39:44.823Z,0.00
2023-09-11T00:40:44.822Z,0.00
2023-09-11T00:41:44.940Z,0.00
2023-09-11T00:42:44.879Z,0.00
2023-09-11T00:43:44.813Z,0.00
2023-09-11T00:44:44.818Z,0.00
2023-09-11T00:45:44.781Z,0.00
2023-09-11T00:46:44.936Z,0.00
2023-09-11T00:47:44.808Z,0.00
2023-09-11T00:48:44.770Z,0.00
2023-09-11T00:49:44.697Z,0.00
2023-09-11T00:50:44.696Z,0.00
2023-09-11T00:51:44.682Z,0.00
2023-09-11T00:52:44.661Z,0.00
2023-09-11T00:53:44.791Z,0.00
2023-09-11T00:54:44.688Z,0.00
2023-09-11T00:55:44.621Z,0.00
2023-09-11T00:56:44.646Z,0.00
2023-09-11T00:57:44.632Z,0.00
2023-09-11T00:58:44.590Z,0.00
2023-09-11T00:59:44.730Z,0.00
2023-09-11T01:00:44.578Z,0.00
2023-09-11T01:01:44.572Z,0.00
2023-09-11T01:02:44.647Z,0.00
2023-09-11T01:03:44.609Z,0.00
2023-09-11T01:04:44.517Z,0.00
2023-09-11T01:05:44.543Z,0.00
2023-09-11T01:06:44.510Z,0.00
2023-09-11T01:07:44.488Z,0.00
2023-09-11T01:08:44.626Z,0.00
2023-09-11T01:09:44.526Z,0.00
2023-09-11T01:10:44.478Z,0.00
2023-09-11T01:11:44.542Z,0.00
2023-09-11T01:12:44.437Z,0.00
2023-09-11T01:13:44.430Z,0.00
2023-09-11T01:14:44.493Z,0.00
2023-09-11T01:15:44.388Z,0.00
2023-09-11T01:16:44.435Z,0.00
2023-09-11T01:17:44.413Z,0.00
2023-09-11T01:18:44.406Z,0.00
2023-09-11T01:19:44.444Z,0.00
2023-09-11T01:20:44.352Z,0.00
2023-09-11T01:21:44.314Z,0.00
2023-09-11T01:22:44.341Z,0.00
2023-09-11T01:23:44.400Z,0.00
2023-09-11T01:24:44.314Z,0.00
2023-09-11T01:25:44.272Z,0.00
2023-09-11T01:26:44.312Z,0.00
2023-09-11T01:27:44.256Z,0.00
2023-09-11T01:28:44.258Z,0.00
2023-09-11T01:29:44.321Z,0.00
2023-09-11T01:30:44.268Z,0.00
2023-09-11T01:31:44.209Z,0.00
2023-09-11T01:32:44.360Z,0.00
2023-09-11T01:33:44.263Z,0.00
2023-09-11T01:34:44.178Z,0.00
2023-09-11T01:35:44.194Z,0.00
2023-09-11T01:36:44.165Z,0.00
2023-09-11T01:37:44.138Z,0.00
2023-09-11T01:38:44.235Z,0.00
2023-09-11T01:39:44.111Z,0.00
2023-09-11T01:40:44.111Z,0.00
2023-09-11T01:41:44.151Z,0.00
2023-09-11T01:42:44.093Z,0.00
2023-09-11T01:43:44.128Z,0.00
2023-09-11T01:44:44.129Z,0.00
2023-09-11T01:45:44.137Z,0.00
2023-09-11T01:46:44.033Z,0.00
2023-09-11T01:47:44.129Z,0.00
2023-09-11T01:48:44.403Z,0.00
2023-09-11T01:49:44.103Z,0.00
2023-09-11T01:50:44.064Z,0.00
2023-09-11T01:51:43.984Z,0.00
2023-09-11T01:52:43.963Z,0.00
2023-09-11T01:53:44.089Z,0.00
2023-09-11T01:54:43.953Z,0.00
2023-09-11T01:55:43.967Z,0.00
2023-09-11T01:56:43.993Z,0.00
2023-09-11T01:57:43.907Z,0.00
2023-09-11T01:58:44.190Z,0.00
2023-09-11T01:59:44.001Z,0.00
2023-09-11T02:00:43.976Z,0.00
2023-09-11T02:01:44.010Z,0.00
2023-09-11T02:02:44.367Z,0.00
2023-09-11T02:03:43.982Z,0.00
2023-09-11T02:04:43.888Z,0.00
2023-09-11T02:05:43.855Z,0.00
2023-09-11T02:06:43.820Z,0.00
2023-09-11T02:07:43.814Z,0.00
2023-09-11T02:08:44.144Z,0.00
2023-09-11T02:09:43.811Z,0.00
2023-09-11T02:10:43.877Z,0.00
2023-09-11T02:11:43.768Z,0.00
2023-09-11T02:12:43.743Z,0.00
2023-09-11T02:13:43.771Z,0.00
2023-09-11T02:14:43.727Z,0.00
2023-09-11T02:15:43.753Z,0.00
2023-09-11T02:16:43.715Z,0.00
2023-09-11T02:17:43.746Z,0.00
2023-09-11T02:18:43.990Z,0.00
2023-09-11T02:19:43.689Z,0.00
2023-09-11T02:20:43.675Z,0.00
2023-09-11T02:21:43.660Z,0.00
2023-09-11T02:22:43.619Z,0.00
2023-09-11T02:23:43.637Z,0.00
2023-09-11T02:24:43.609Z,0.00
2023-09-11T02:25:43.611Z,0.00
2023-09-11T02:26:43.638Z,0.00
2023-09-11T02:27:43.722Z,0.00
2023-09-11T02:28:43.688Z,0.00
2023-09-11T02:29:43.588Z,0.00
2023-09-11T02:30:43.557Z,0.00
2023-09-11T02:31:43.583Z,0.00
2023-09-11T02:32:43.685Z,0.00
2023-09-11T02:33:43.517Z,0.00
2023-09-11T02:34:43.536Z,0.00
2023-09-11T02:35:43.526Z,0.00
2023-09-11T02:36:43.476Z,0.00
2023-09-11T02:37:43.806Z,0.00
2023-09-11T02:38:43.794Z,0.00
2023-09-11T02:39:43.497Z,0.00
2023-09-11T02:40:43.711Z,0.00
2023-09-11T02:41:43.454Z,0.00
2023-09-11T02:42:44.185Z,0.00
2023-09-11T02:43:43.918Z,0.00
2023-09-11T02:44:43.434Z,0.00
2023-09-11T02:45:43.489Z,0.00
2023-09-11T02:46:43.437Z,0.00
2023-09-11T02:47:43.494Z,0.00
2023-09-11T02:48:43.642Z,0.00
2023-09-11T02:49:43.315Z,0.00
2023-09-11T02:50:43.318Z,0.00
2023-09-11T02:51:43.294Z,0.00
2023-09-11T02:52:43.308Z,0.00
2023-09-11T02:53:43.307Z,0.00
2023-09-11T02:54:43.285Z,0.00
2023-09-11T02:55:43.232Z,0.00
2023-09-11T02:56:43.289Z,0.00
2023-09-11T02:57:43.260Z,0.00
2023-09-11T02:58:43.644Z,0.00
2023-09-11T02:59:43.226Z,0.00
2023-09-11T03:00:43.242Z,0.00
2023-09-11T03:01:43.191Z,0.00
2023-09-11T03:02:43.211Z,0.00
2023-09-11T03:03:43.153Z,0.00
2023-09-11T03:04:43.143Z,0.00
2023-09-11T03:05:43.206Z,0.00
2023-09-11T03:06:43.149Z,0.00
2023-09-11T03:07:43.102Z,0.00
2023-09-11T03:08:43.370Z,0.00
2023-09-11T03:09:43.163Z,0.00
2023-09-11T03:10:43.099Z,0.00
2023-09-11T03:11:43.143Z,0.00
2023-09-11T03:12:43.095Z,0.00
2023-09-11T03:13:43.046Z,0.00
2023-09-11T03:14:43.068Z,0.00
2023-09-11T03:15:43.076Z,0.00
2023-09-11T03:16:43.020Z,0.00
2023-09-11T03:17:43.078Z,0.00
2023-09-11T03:18:43.297Z,0.00
2023-09-11T03:19:42.988Z,0.00
2023-09-11T03:20:42.967Z,0.00
2023-09-11T03:21:42.982Z,0.00
2023-09-11T03:22:42.924Z,0.00
2023-09-11T03:23:43.006Z,0.00
2023-09-11T03:24:42.943Z,0.00
2023-09-11T03:25:42.885Z,0.00
2023-09-11T03:26:42.961Z,0.00
2023-09-11T03:27:43.177Z,0.00
2023-09-11T03:28:43.148Z,0.00
2023-09-11T03:29:42.913Z,0.00
2023-09-11T03:30:42.849Z,0.00
2023-09-11T03:31:42.815Z,0.00
2023-09-11T03:32:42.932Z,0.00
2023-09-11T03:33:42.980Z,0.00
2023-09-11T03:34:42.776Z,0.00
2023-09-11T03:35:42.814Z,0.00
2023-09-11T03:36:42.853Z,0.00
2023-09-11T03:37:42.758Z,0.00
2023-09-11T03:38:43.026Z,0.00
2023-09-11T03:39:42.733Z,0.00
2023-09-11T03:40:42.748Z,0.00
2023-09-11T03:41:42.736Z,0.00
2023-09-11T03:42:42.737Z,0.00
2023-09-11T03:43:42.723Z,0.00
2023-09-11T03:44:42.730Z,0.00
2023-09-11T03:45:42.648Z,0.00
2023-09-11T03:46:42.712Z,0.00
2023-09-11T03:47:42.685Z,0.00
2023-09-11T03:48:43.082Z,0.00
2023-09-11T03:49:42.610Z,0.00
2023-09-11T03:50:42.629Z,0.00
2023-09-11T03:51:42.586Z,0.00
2023-09-11T03:52:42.600Z,0.00
2023-09-11T03:53:42.637Z,0.00
2023-09-11T03:54:42.570Z,0.00
2023-09-11T03:55:42.542Z,0.00
2023-09-11T03:56:42.566Z,0.00
2023-09-11T03:57:42.574Z,0.00
2023-09-11T03:58:42.825Z,0.00
2023-09-11T03:59:42.566Z,0.00
2023-09-11T04:00:42.543Z,0.00
2023-09-11T04:01:42.476Z,0.00
2023-09-11T04:02:42.568Z,0.00
2023-09-11T04:03:42.680Z,0.00
2023-09-11T04:04:42.508Z,0.00
2023-09-11T04:05:42.476Z,0.00
2023-09-11T04:06:42.429Z,0.00
2023-09-11T04:07:42.431Z,0.00
2023-09-11T04:08:42.448Z,0.00
2023-09-11T04:09:42.390Z,0.00
2023-09-11T04:10:42.393Z,0.00
2023-09-11T04:11:42.462Z,0.00
2023-09-11T04:12:42.364Z,0.00
2023-09-11T04:13:42.345Z,0.00
2023-09-11T04:14:42.361Z,0.00
2023-09-11T04:15:42.319Z,0.00
2023-09-11T04:16:42.338Z,0.00
2023-09-11T04:17:42.382Z,0.00
2023-09-11T04:18:42.509Z,0.00
2023-09-11T04:19:42.301Z,0.00
2023-09-11T04:20:42.308Z,0.00
2023-09-11T04:21:42.241Z,0.00
2023-09-11T04:22:42.320Z,0.00
2023-09-11T04:23:42.291Z,0.00
2023-09-11T04:24:42.222Z,0.00
2023-09-11T04:25:42.201Z,4.00
2023-09-11T04:26:42.197Z,0.00
2023-09-11T04:27:43.410Z,4.00
2023-09-11T04:28:42.412Z,4.00
2023-09-11T04:29:42.173Z,4.00
2023-09-11T04:30:42.154Z,4.00
2023-09-11T04:31:42.127Z,4.00
2023-09-11T04:32:42.187Z,4.00
2023-09-11T04:33:42.246Z,8.00
2023-09-11T04:34:42.121Z,8.00
2023-09-11T04:35:42.121Z,12.00
2023-09-11T04:36:42.108Z,12.00
2023-09-11T04:37:42.112Z,16.00
2023-09-11T04:38:42.287Z,16.00
2023-09-11T04:39:42.127Z,16.00
2023-09-11T04:40:42.035Z,20.00
2023-09-11T04:41:42.140Z,28.00
2023-09-11T04:42:42.023Z,32.00
2023-09-11T04:43:41.990Z,36.00
2023-09-11T04:44:42.192Z,40.00
2023-09-11T04:45:41.990Z,44.00
2023-09-11T04:46:41.998Z,52.00
2023-09-11T04:47:42.000Z,60.00
2023-09-11T04:48:42.274Z,64.00
2023-09-11T04:49:41.994Z,76.00
2023-09-11T04:50:41.959Z,84.00
2023-09-11T04:51:41.933Z,92.00
2023-09-11T04:52:41.877Z,104.00
2023-09-11T04:53:41.916Z,116.00
2023-09-11T04:54:41.937Z,128.00
2023-09-11T04:55:41.845Z,136.00
2023-09-11T04:56:41.855Z,148.00
2023-09-11T04:57:41.833Z,164.00
2023-09-11T04:58:42.011Z,180.00
2023-09-11T04:59:42.260Z,192.00
2023-09-11T05:00:41.798Z,208.00
2023-09-11T05:01:41.849Z,224.00
2023-09-11T05:02:41.854Z,240.00
2023-09-11T05:03:41.860Z,256.00
2023-09-11T05:04:41.922Z,280.00
2023-09-11T05:05:41.794Z,296.00
2023-09-11T05:06:41.729Z,316.00
2023-09-11T05:07:41.712Z,336.00
2023-09-11T05:09:02.155Z,360.00
2023-09-11T05:09:42.784Z,380.00
2023-09-11T05:10:41.794Z,396.00
2023-09-11T05:11:41.706Z,420.00
2023-09-11T05:12:41.727Z,440.00
2023-09-11T05:13:41.652Z,460.00
2023-09-11T05:14:43.673Z,484.00
2023-09-11T05:15:41.639Z,504.00
2023-09-11T05:16:41.622Z,528.00
2023-09-11T05:17:41.620Z,552.00
2023-09-11T05:18:41.947Z,572.00
2023-09-11T05:19:41.588Z,592.00
2023-09-11T05:20:41.628Z,620.00
2023-09-11T05:21:41.574Z,640.00
2023-09-11T05:22:41.626Z,664.00
2023-09-11T05:23:41.603Z,684.00
2023-09-11T05:24:41.543Z,708.00
2023-09-11T05:25:41.490Z,732.00
2023-09-11T05:26:41.565Z,752.00
2023-09-11T05:27:41.457Z,772.00
2023-09-11T05:28:41.777Z,792.00
2023-09-11T05:29:41.452Z,816.00
2023-09-11T05:30:41.475Z,836.00
2023-09-11T05:31:41.521Z,860.00
2023-09-11T05:32:41.439Z,880.00
2023-09-11T05:33:41.438Z,900.00
2023-09-11T05:34:41.397Z,920.00
2023-09-11T05:35:41.384Z,944.00
2023-09-11T05:36:41.371Z,964.00
2023-09-11T05:37:41.345Z,988.00
2023-09-11T05:38:41.634Z,1004.00
2023-09-11T05:39:41.363Z,1028.00
2023-09-11T05:40:41.318Z,1052.00
2023-09-11T05:41:41.345Z,1072.00
2023-09-11T05:42:41.300Z,1096.00
2023-09-11T05:43:41.287Z,1124.00
2023-09-11T05:44:41.356Z,1152.00
2023-09-11T05:45:41.287Z,1180.00
2023-09-11T05:46:41.239Z,1212.00
2023-09-11T05:47:41.400Z,1244.00
2023-09-11T05:48:41.618Z,1280.00
2023-09-11T05:49:41.217Z,1320.00
2023-09-11T05:50:41.230Z,1360.00
2023-09-11T05:51:41.192Z,1400.00
2023-09-11T05:52:41.185Z,1444.00
2023-09-11T05:53:41.250Z,1492.00
2023-09-11T05:54:41.164Z,1548.00
2023-09-11T05:55:41.160Z,1600.00
2023-09-11T05:56:41.164Z,1648.00
2023-09-11T05:57:41.115Z,1708.00
2023-09-11T05:58:41.339Z,1768.00
2023-09-11T05:59:41.155Z,1832.00
2023-09-11T06:00:41.086Z,1892.00
2023-09-11T06:01:41.096Z,1960.00
2023-09-11T06:02:41.150Z,2028.00
2023-09-11T06:03:41.193Z,2092.00
2023-09-11T06:04:41.074Z,2148.00
2023-09-11T06:05:41.189Z,2196.00
2023-09-11T06:06:41.013Z,2244.00
2023-09-11T06:07:41.040Z,2280.00
2023-09-11T06:08:41.218Z,2324.00
2023-09-11T06:09:40.973Z,2360.00
2023-09-11T06:10:41.096Z,2396.00
2023-09-11T06:11:41.140Z,2424.00
2023-09-11T06:12:41.083Z,2464.00
2023-09-11T06:13:40.932Z,2460.00
2023-09-11T06:14:40.949Z,2528.00
2023-09-11T06:15:40.944Z,2536.00
2023-09-11T06:16:40.986Z,2560.00
2023-09-11T06:17:45.226Z,2548.00
2023-09-11T06:18:41.389Z,2656.00
2023-09-11T06:19:41.001Z,2508.00
2023-09-11T06:20:41.165Z,2728.00
2023-09-11T06:21:40.992Z,2676.00
2023-09-11T06:22:40.933Z,2784.00
2023-09-11T06:23:40.964Z,2808.00
2023-09-11T06:24:40.898Z,2836.00
2023-09-11T06:25:40.907Z,2860.00
2023-09-11T06:26:40.996Z,2888.00
2023-09-11T06:27:40.874Z,2920.00
2023-09-11T06:28:41.083Z,2952.00
2023-09-11T06:29:40.827Z,2980.00
2023-09-11T06:30:40.869Z,3016.00
2023-09-11T06:31:40.781Z,3044.00
2023-09-11T06:32:40.832Z,3076.00
2023-09-11T06:33:40.906Z,3108.00
2023-09-11T06:34:40.789Z,3136.00
2023-09-11T06:35:40.720Z,3172.00
2023-09-11T06:36:40.669Z,3196.00
2023-09-11T06:37:40.704Z,3224.00
2023-09-11T06:38:41.031Z,3256.00
2023-09-11T06:39:40.670Z,3288.00
2023-09-11T06:40:40.685Z,3316.00
2023-09-11T06:41:40.689Z,3340.00
2023-09-11T06:42:40.598Z,3372.00
2023-09-11T06:43:40.640Z,3400.00
2023-09-11T06:44:40.653Z,3428.00
2023-09-11T06:45:40.634Z,3464.00
2023-09-11T06:46:40.596Z,3492.00
2023-09-11T06:47:40.594Z,3516.00
2023-09-11T06:48:41.206Z,3548.00
2023-09-11T06:49:40.563Z,3576.00
2023-09-11T06:50:40.542Z,3600.00
2023-09-11T06:51:40.531Z,3624.00
2023-09-11T06:52:40.501Z,3648.00
2023-09-11T06:53:40.561Z,3672.00
2023-09-11T06:54:40.528Z,3700.00
2023-09-11T06:55:40.440Z,3724.00
2023-09-11T06:56:40.520Z,3752.00
2023-09-11T06:57:40.459Z,3764.00
2023-09-11T06:58:40.720Z,3784.00
2023-09-11T06:59:40.574Z,3804.00
2023-09-11T07:00:40.405Z,3828.00
2023-09-11T07:01:40.513Z,3852.00
2023-09-11T07:02:40.528Z,3876.00
2023-09-11T07:03:40.552Z,3896.00
2023-09-11T07:04:40.372Z,3916.00
2023-09-11T07:05:40.400Z,3940.00
2023-09-11T07:06:40.331Z,3960.00
2023-09-11T07:07:40.376Z,3984.00
2023-09-11T07:08:40.743Z,4000.00
2023-09-11T07:09:40.540Z,4024.00
2023-09-11T07:10:41.805Z,4044.00
2023-09-11T07:11:40.341Z,4064.00
2023-09-11T07:12:40.298Z,4088.00
2023-09-11T07:13:40.248Z,4108.00
2023-09-11T07:14:40.294Z,4128.00
2023-09-11T07:15:40.341Z,4148.00
2023-09-11T07:16:40.256Z,4164.00
2023-09-11T07:17:40.236Z,4184.00
2023-09-11T07:18:41.926Z,4200.00
2023-09-11T07:19:40.166Z,4216.00
2023-09-11T07:20:40.192Z,4228.00
2023-09-11T07:21:40.138Z,4248.00
2023-09-11T07:22:40.126Z,4264.00
2023-09-11T07:23:40.161Z,4284.00
2023-09-11T07:24:40.204Z,4300.00
2023-09-11T07:25:40.092Z,4320.00
2023-09-11T07:26:40.200Z,4340.00
2023-09-11T07:27:40.166Z,4360.00
2023-09-11T07:28:40.275Z,4380.00
2023-09-11T07:29:40.098Z,4392.00
2023-09-11T07:30:40.048Z,4408.00
2023-09-11T07:31:40.078Z,4428.00
2023-09-11T07:32:40.123Z,4440.00
2023-09-11T07:33:40.164Z,4456.00
2023-09-11T07:34:40.032Z,4472.00
2023-09-11T07:35:40.026Z,4492.00
2023-09-11T07:36:39.972Z,4508.00
2023-09-11T07:37:39.994Z,4524.00
2023-09-11T07:38:40.195Z,4544.00
2023-09-11T07:39:39.952Z,4564.00
2023-09-11T07:40:40.058Z,4584.00
2023-09-11T07:41:39.935Z,4608.00
2023-09-11T07:42:39.941Z,4624.00
2023-09-11T07:43:39.913Z,4640.00
2023-09-11T07:44:39.926Z,4660.00
2023-09-11T07:45:39.855Z,4680.00
2023-09-11T07:46:40.169Z,4692.00
2023-09-11T07:47:40.048Z,4704.00
2023-09-11T07:48:40.212Z,4712.00
2023-09-11T07:49:39.853Z,4720.00
2023-09-11T07:50:39.865Z,4724.00
2023-09-11T07:51:39.833Z,4732.00
2023-09-11T07:52:39.787Z,4728.00
2023-09-11T07:53:39.875Z,4720.00
2023-09-11T07:54:39.758Z,4716.00
2023-09-11T07:55:39.802Z,4712.00
2023-09-11T07:56:39.761Z,4700.00
2023-09-11T07:57:39.754Z,4692.00
2023-09-11T07:58:40.139Z,4688.00
2023-09-11T07:59:39.773Z,4688.00
2023-09-11T08:00:39.749Z,4680.00
2023-09-11T08:01:39.711Z,4544.00
2023-09-11T08:02:39.728Z,4680.00
2023-09-11T08:03:39.880Z,4684.00
2023-09-11T08:04:39.708Z,4688.00
2023-09-11T08:05:39.761Z,4692.00
2023-09-11T08:06:39.666Z,4700.00
2023-09-11T08:07:39.657Z,4704.00
2023-09-11T08:08:39.896Z,4708.00
2023-09-11T08:09:39.612Z,4720.00
2023-09-11T08:10:39.617Z,4728.00
2023-09-11T08:11:39.610Z,4736.00
2023-09-11T08:12:39.559Z,4740.00
2023-09-11T08:13:39.567Z,4756.00
2023-09-11T08:14:39.623Z,4768.00
2023-09-11T08:15:39.534Z,4784.00
2023-09-11T08:16:39.566Z,4796.00
2023-09-11T08:17:40.226Z,4808.00
2023-09-11T08:18:39.815Z,4820.00
2023-09-11T08:19:39.472Z,4840.00
2023-09-11T08:20:39.551Z,4852.00
2023-09-11T08:21:39.474Z,4860.00
2023-09-11T08:22:39.481Z,4872.00
2023-09-11T08:23:39.437Z,4880.00
2023-09-11T08:24:39.453Z,4888.00
2023-09-11T08:25:39.413Z,4892.00
2023-09-11T08:26:39.472Z,4904.00
2023-09-11T08:27:39.392Z,4916.00
2023-09-11T08:28:39.733Z,4928.00
2023-09-11T08:29:39.406Z,4944.00
2023-09-11T08:30:41.857Z,4952.00
2023-09-11T08:31:39.338Z,4968.00
2023-09-11T08:32:39.453Z,4988.00
2023-09-11T08:33:52.648Z,5000.00
2023-09-11T08:34:40.289Z,5008.00
2023-09-11T08:35:39.298Z,5016.00
2023-09-11T08:36:39.271Z,5028.00
2023-09-11T08:37:39.294Z,5032.00
2023-09-11T08:38:39.608Z,5036.00
2023-09-11T08:39:39.228Z,5032.00
2023-09-11T08:40:39.242Z,5044.00
2023-09-11T08:41:39.259Z,5040.00
2023-09-11T08:42:39.205Z,5048.00
2023-09-11T08:43:39.188Z,5064.00
2023-09-11T08:44:39.295Z,5072.00
2023-09-11T08:45:39.232Z,5088.00
2023-09-11T08:46:39.209Z,5096.00
2023-09-11T08:47:39.211Z,5108.00
2023-09-11T08:48:39.534Z,5120.00
2023-09-11T08:49:39.210Z,5120.00
2023-09-11T08:50:39.130Z,5132.00
2023-09-11T08:51:39.201Z,5148.00
2023-09-11T08:52:39.099Z,5156.00
2023-09-11T08:53:39.197Z,5168.00
2023-09-11T08:54:39.065Z,5172.00
2023-09-11T08:55:39.078Z,5172.00
2023-09-11T08:56:39.212Z,5176.00
2023-09-11T08:57:39.072Z,5180.00
2023-09-11T08:58:39.347Z,5188.00
2023-09-11T08:59:39.110Z,5188.00
2023-09-11T09:00:39.005Z,5208.00
2023-09-11T09:01:39.008Z,5220.00
2023-09-11T09:02:39.100Z,5232.00
2023-09-11T09:03:39.162Z,5244.00
2023-09-11T09:04:39.128Z,5248.00
2023-09-11T09:05:39.002Z,5268.00
2023-09-11T09:06:39.004Z,5272.00
2023-09-11T09:07:38.954Z,5272.00
2023-09-11T09:08:39.529Z,5284.00
2023-09-11T09:09:38.926Z,5252.00
2023-09-11T09:10:38.884Z,5276.00
2023-09-11T09:11:38.965Z,5280.00
2023-09-11T09:12:39.069Z,5288.00
2023-09-11T09:13:39.167Z,5280.00
2023-09-11T09:14:38.921Z,4980.00
2023-09-11T09:15:38.893Z,5312.00
2023-09-11T09:16:39.162Z,5328.00
2023-09-11T09:17:38.854Z,5264.00
2023-09-11T09:18:38.909Z,5144.00
2023-09-11T09:19:38.876Z,5236.00
2023-09-11T09:20:38.836Z,5160.00
2023-09-11T09:21:38.800Z,5164.00
2023-09-11T09:22:38.803Z,5228.00
2023-09-11T09:23:38.914Z,5140.00
2023-09-11T09:24:38.823Z,5176.00
2023-09-11T09:25:38.722Z,5088.00
2023-09-11T09:26:38.803Z,5388.00
2023-09-11T09:27:38.746Z,4212.00
2023-09-11T09:28:38.681Z,4492.00
2023-09-11T09:29:38.709Z,5352.00
2023-09-11T09:30:38.713Z,5348.00
2023-09-11T09:31:38.815Z,5356.00
2023-09-11T09:32:38.764Z,5312.00
2023-09-11T09:33:38.728Z,5344.00
2023-09-11T09:34:38.622Z,5352.00
2023-09-11T09:35:38.660Z,5212.00
2023-09-11T09:36:38.623Z,4500.00
2023-09-11T09:37:38.575Z,4832.00
2023-09-11T09:38:38.605Z,4088.00
2023-09-11T09:39:38.561Z,5352.00
2023-09-11T09:40:38.596Z,5372.00
2023-09-11T09:41:38.613Z,5368.00
2023-09-11T09:42:38.643Z,5364.00
2023-09-11T09:43:38.857Z,5396.00
2023-09-11T09:44:38.588Z,4904.00
2023-09-11T09:45:38.528Z,5280.00
2023-09-11T09:46:38.550Z,5344.00
2023-09-11T09:47:38.605Z,5340.00
2023-09-11T09:48:38.659Z,5324.00
2023-09-11T09:49:38.468Z,5332.00
2023-09-11T09:50:38.484Z,5328.00
2023-09-11T09:51:38.495Z,5220.00
2023-09-11T09:52:38.458Z,5184.00
2023-09-11T09:53:38.478Z,5292.00
2023-09-11T09:54:38.434Z,5276.00
2023-09-11T09:55:38.384Z,5268.00
2023-09-11T09:56:38.383Z,5252.00
2023-09-11T09:57:38.338Z,5248.00
2023-09-11T09:58:38.324Z,5236.00
2023-09-11T09:59:38.361Z,5232.00
2023-09-11T10:00:38.320Z,5232.00
2023-09-11T10:01:38.414Z,5224.00
2023-09-11T10:02:38.440Z,5220.00
2023-09-11T10:03:38.414Z,5212.00
2023-09-11T10:04:38.291Z,5208.00
2023-09-11T10:05:38.305Z,5196.00
2023-09-11T10:06:38.248Z,5188.00
2023-09-11T10:07:38.258Z,5184.00
2023-09-11T10:08:38.275Z,5168.00
2023-09-11T10:09:38.211Z,5160.00
2023-09-11T10:10:38.333Z,5156.00
2023-09-11T10:11:38.339Z,5144.00
2023-09-11T10:12:38.234Z,5132.00
2023-09-11T10:13:38.205Z,5120.00
2023-09-11T10:14:38.267Z,5112.00
2023-09-11T10:15:38.253Z,5104.00
2023-09-11T10:16:38.257Z,5092.00
2023-09-11T10:17:38.182Z,5080.00
2023-09-11T10:18:38.171Z,5064.00
2023-09-11T10:19:38.095Z,5056.00
2023-09-11T10:20:38.147Z,5040.00
2023-09-11T10:21:38.126Z,5028.00
2023-09-11T10:22:38.098Z,5020.00
2023-09-11T10:23:38.101Z,5012.00
2023-09-11T10:24:38.103Z,5004.00
2023-09-11T10:25:38.044Z,4992.00
2023-09-11T10:26:38.050Z,4988.00
2023-09-11T10:27:38.029Z,4980.00
2023-09-11T10:28:38.006Z,4968.00
2023-09-11T10:29:38.153Z,4952.00
2023-09-11T10:30:38.022Z,4944.00
2023-09-11T10:31:37.991Z,4936.00
2023-09-11T10:32:39.101Z,4924.00
2023-09-11T10:33:38.037Z,4916.00
2023-09-11T10:34:37.936Z,4900.00
2023-09-11T10:35:37.951Z,4896.00
2023-09-11T10:36:37.943Z,4884.00
2023-09-11T10:37:37.904Z,4872.00
2023-09-11T10:38:38.039Z,4864.00
2023-09-11T10:39:37.907Z,4852.00
2023-09-11T10:40:37.876Z,4848.00
2023-09-11T10:41:37.901Z,4840.00
2023-09-11T10:42:37.863Z,4824.00
2023-09-11T10:43:37.989Z,4820.00
2023-09-11T10:44:37.992Z,4808.00
2023-09-11T10:45:37.857Z,4800.00
2023-09-11T10:46:37.886Z,4796.00
2023-09-11T10:47:37.867Z,4788.00
2023-09-11T10:48:37.897Z,4776.00
2023-09-11T10:49:37.838Z,4764.00
2023-09-11T10:50:37.846Z,4752.00
2023-09-11T10:51:37.749Z,4748.00
2023-09-11T10:52:37.730Z,4744.00
2023-09-11T10:53:37.744Z,4732.00
2023-09-11T10:54:40.075Z,4728.00
2023-09-11T10:55:39.156Z,4720.00
2023-09-11T10:56:37.933Z,4716.00
2023-09-11T10:57:37.743Z,4712.00
2023-09-11T10:58:37.660Z,4704.00
2023-09-11T10:59:37.708Z,4692.00
2023-09-11T11:00:37.635Z,4684.00
2023-09-11T11:01:37.671Z,4672.00
2023-09-11T11:02:37.865Z,4664.00
2023-09-11T11:03:37.754Z,4656.00
2023-09-11T11:04:37.606Z,4644.00
2023-09-11T11:05:37.622Z,4636.00
2023-09-11T11:06:37.589Z,4628.00
2023-09-11T11:07:37.568Z,4620.00
2023-09-11T11:08:37.703Z,4608.00
2023-09-11T11:09:37.591Z,4600.00
2023-09-11T11:10:37.553Z,4596.00
2023-09-11T11:11:37.575Z,4584.00
2023-09-11T11:12:37.538Z,4580.00
2023-09-11T11:13:37.511Z,4568.00
2023-09-11T11:14:37.498Z,4556.00
2023-09-11T11:15:37.552Z,4548.00
2023-09-11T11:16:37.508Z,4540.00
2023-09-11T11:17:37.514Z,4528.00
2023-09-11T11:18:37.546Z,4516.00
2023-09-11T11:19:37.500Z,4508.00
2023-09-11T11:20:37.471Z,4500.00
2023-09-11T11:21:37.397Z,4492.00
2023-09-11T11:22:37.384Z,4484.00
2023-09-11T11:23:37.441Z,4472.00
2023-09-11T11:24:37.371Z,4460.00
2023-09-11T11:25:37.363Z,4440.00
2023-09-11T11:26:37.362Z,4436.00
2023-09-11T11:27:37.334Z,4428.00
2023-09-11T11:28:37.315Z,4424.00
2023-09-11T11:29:37.478Z,4412.00
2023-09-11T11:30:37.400Z,4400.00
2023-09-11T11:31:38.184Z,4388.00
2023-09-11T11:32:37.404Z,4380.00
2023-09-11T11:33:37.323Z,4376.00
2023-09-11T11:34:37.309Z,4368.00
2023-09-11T11:35:37.275Z,4356.00
2023-09-11T11:36:38.460Z,4340.00
2023-09-11T11:37:37.240Z,4328.00
2023-09-11T11:38:37.354Z,4320.00
2023-09-11T11:39:37.218Z,4304.00
2023-09-11T11:40:37.257Z,4296.00
2023-09-11T11:41:37.300Z,4292.00
2023-09-11T11:42:37.189Z,4284.00
2023-09-11T11:43:37.189Z,4272.00
2023-09-11T11:44:37.206Z,4252.00
2023-09-11T11:45:37.155Z,4244.00
2023-09-11T11:46:37.201Z,4232.00
2023-09-11T11:47:37.190Z,4228.00
2023-09-11T11:48:37.175Z,4216.00
2023-09-11T11:49:37.117Z,4200.00
2023-09-11T11:50:37.088Z,4188.00
2023-09-11T11:51:37.051Z,4180.00
2023-09-11T11:52:37.082Z,4172.00
2023-09-11T11:53:37.168Z,4164.00
2023-09-11T11:54:37.053Z,4148.00
2023-09-11T11:55:37.024Z,4140.00
2023-09-11T11:56:37.107Z,4120.00
2023-09-11T11:57:37.021Z,4108.00
2023-09-11T11:58:36.975Z,4104.00
2023-09-11T11:59:37.024Z,4092.00
2023-09-11T12:00:36.977Z,4084.00
2023-09-11T12:01:36.941Z,4072.00
2023-09-11T12:02:36.997Z,4064.00
2023-09-11T12:03:37.036Z,4056.00
2023-09-11T12:04:49.139Z,4040.00
2023-09-11T12:05:38.011Z,4024.00
2023-09-11T12:06:36.902Z,4008.00
2023-09-11T12:07:36.903Z,3992.00
2023-09-11T12:08:36.959Z,3940.00
2023-09-11T12:09:36.852Z,3952.00
2023-09-11T12:10:36.829Z,3964.00
2023-09-11T12:11:36.861Z,3956.00
2023-09-11T12:12:36.815Z,3948.00
2023-09-11T12:13:48.892Z,3940.00
2023-09-11T12:14:38.339Z,3924.00
2023-09-11T12:15:36.834Z,3920.00
2023-09-11T12:16:36.918Z,3904.00
2023-09-11T12:17:36.846Z,3888.00
2023-09-11T12:18:36.879Z,3872.00
2023-09-11T12:19:36.800Z,3856.00
2023-09-11T12:20:36.787Z,3844.00
2023-09-11T12:21:36.725Z,3828.00
2023-09-11T12:22:36.744Z,3816.00
2023-09-11T12:23:36.764Z,3816.00
2023-09-11T12:24:36.741Z,3800.00
2023-09-11T12:25:36.700Z,3788.00
2023-09-11T12:26:36.784Z,3780.00
2023-09-11T12:27:36.662Z,3764.00
2023-09-11T12:28:36.773Z,3752.00
2023-09-11T12:29:36.715Z,3740.00
2023-09-11T12:30:36.608Z,3728.00
2023-09-11T12:31:36.636Z,3716.00
2023-09-11T12:32:36.677Z,3704.00
2023-09-11T12:33:36.719Z,3692.00